sensor_id;sensor_type;location;lat;lon;timestamp;P1;durP1;ratioP1;P2;durP2;ratioP2
74620;SDS011;64861;47.546;19.254;2022-12-07T00:01:32;25.75;;;9.38;;
74620;SDS011;64861;47.546;19.254;2022-12-07T00:04:04;28.13;;;9.25;;
74620;SDS011;64861;47.546;19.254;2022-12-07T00:06:34;26.88;;;9.68;;
74620;SDS011;64861;47.546;19.254;2022-12-07T00:09:02;26.30;;;9.38;;
74620;SDS011;64861;47.546;19.254;2022-12-07T00:11:28;21.77;;;9.50;;
74620;SDS011;64861;47.546;19.254;2022-12-07T00:13:55;23.50;;;9.50;;
74620;SDS011;64861;47.546;19.254;2022-12-07T00:16:23;28.98;;;9.98;;
74620;SDS011;64861;47.546;19.254;2022-12-07T00:18:50;42.63;;;9.23;;
74620;SDS011;64861;47.546;19.254;2022-12-07T00:21:20;26.48;;;9.98;;
74620;SDS011;64861;47.546;19.254;2022-12-07T00:23:48;23.23;;;10.00;;
74620;SDS011;64861;47.546;19.254;2022-12-07T00:26:16;23.30;;;10.88;;
74620;SDS011;64861;47.546;19.254;2022-12-07T00:28:47;26.17;;;10.10;;
74620;SDS011;64861;47.546;19.254;2022-12-07T00:31:14;26.52;;;10.02;;
74620;SDS011;64861;47.546;19.254;2022-12-07T00:33:41;25.23;;;11.65;;
74620;SDS011;64861;47.546;19.254;2022-12-07T00:36:09;25.58;;;10.60;;
74620;SDS011;64861;47.546;19.254;2022-12-07T00:38:36;30.60;;;11.25;;
74620;SDS011;64861;47.546;19.254;2022-12-07T00:41:07;25.02;;;10.25;;
74620;SDS011;64861;47.546;19.254;2022-12-07T00:43:36;23.70;;;10.85;;
74620;SDS011;64861;47.546;19.254;2022-12-07T00:46:02;20.63;;;10.07;;
74620;SDS011;64861;47.546;19.254;2022-12-07T00:48:27;24.27;;;9.80;;
74620;SDS011;64861;47.546;19.254;2022-12-07T00:50:53;19.63;;;9.57;;
74620;SDS011;64861;47.546;19.254;2022-12-07T00:53:19;24.27;;;9.80;;
74620;SDS011;64861;47.546;19.254;2022-12-07T00:55:45;25.70;;;10.38;;
74620;SDS011;64861;47.546;19.254;2022-12-07T00:58:10;20.80;;;10.15;;
74620;SDS011;64861;47.546;19.254;2022-12-07T01:00:37;21.92;;;9.93;;
74620;SDS011;64861;47.546;19.254;2022-12-07T01:03:04;22.10;;;9.23;;
74620;SDS011;64861;47.546;19.254;2022-12-07T01:05:31;19.20;;;8.77;;
74620;SDS011;64861;47.546;19.254;2022-12-07T01:07:56;17.80;;;9.77;;
74620;SDS011;64861;47.546;19.254;2022-12-07T01:10:22;18.25;;;8.80;;
74620;SDS011;64861;47.546;19.254;2022-12-07T01:12:47;18.15;;;8.48;;
74620;SDS011;64861;47.546;19.254;2022-12-07T01:15:13;20.58;;;8.90;;
74620;SDS011;64861;47.546;19.254;2022-12-07T01:17:38;16.58;;;8.65;;
74620;SDS011;64861;47.546;19.254;2022-12-07T01:20:04;19.88;;;8.98;;
74620;SDS011;64861;47.546;19.254;2022-12-07T01:22:30;30.17;;;8.45;;
74620;SDS011;64861;47.546;19.254;2022-12-07T01:24:56;15.30;;;8.50;;
74620;SDS011;64861;47.546;19.254;2022-12-07T01:27:21;14.95;;;7.78;;
74620;SDS011;64861;47.546;19.254;2022-12-07T01:29:47;16.38;;;8.27;;
74620;SDS011;64861;47.546;19.254;2022-12-07T01:32:12;16.30;;;8.05;;
74620;SDS011;64861;47.546;19.254;2022-12-07T01:34:38;17.60;;;8.00;;
74620;SDS011;64861;47.546;19.254;2022-12-07T01:37:03;15.65;;;8.73;;
74620;SDS011;64861;47.546;19.254;2022-12-07T01:39:29;17.27;;;8.35;;
74620;SDS011;64861;47.546;19.254;2022-12-07T01:41:54;15.55;;;7.88;;
74620;SDS011;64861;47.546;19.254;2022-12-07T01:44:24;15.32;;;7.97;;
74620;SDS011;64861;47.546;19.254;2022-12-07T01:46:55;15.30;;;7.78;;
74620;SDS011;64861;47.546;19.254;2022-12-07T01:49:29;20.38;;;7.57;;
74620;SDS011;64861;47.546;19.254;2022-12-07T01:52:13;16.42;;;7.90;;
74620;SDS011;64861;47.546;19.254;2022-12-07T01:54:43;14.23;;;7.28;;
74620;SDS011;64861;47.546;19.254;2022-12-07T01:57:10;18.42;;;8.00;;
74620;SDS011;64861;47.546;19.254;2022-12-07T01:59:38;15.15;;;7.60;;
74620;SDS011;64861;47.546;19.254;2022-12-07T02:02:06;16.02;;;7.10;;
74620;SDS011;64861;47.546;19.254;2022-12-07T02:04:37;14.43;;;7.60;;
74620;SDS011;64861;47.546;19.254;2022-12-07T02:07:02;14.10;;;8.05;;
74620;SDS011;64861;47.546;19.254;2022-12-07T02:09:30;12.65;;;6.90;;
74620;SDS011;64861;47.546;19.254;2022-12-07T02:11:55;13.85;;;8.00;;
74620;SDS011;64861;47.546;19.254;2022-12-07T02:14:21;16.45;;;8.05;;
74620;SDS011;64861;47.546;19.254;2022-12-07T02:19:29;16.17;;;7.10;;
74620;SDS011;64861;47.546;19.254;2022-12-07T02:25:24;16.83;;;6.65;;
74620;SDS011;64861;47.546;19.254;2022-12-07T02:28:11;13.82;;;7.35;;
74620;SDS011;64861;47.546;19.254;2022-12-07T02:30:40;12.52;;;7.35;;
74620;SDS011;64861;47.546;19.254;2022-12-07T02:33:14;12.18;;;6.70;;
74620;SDS011;64861;47.546;19.254;2022-12-07T02:35:49;14.27;;;7.97;;
74620;SDS011;64861;47.546;19.254;2022-12-07T02:41:04;12.95;;;6.90;;
74620;SDS011;64861;47.546;19.254;2022-12-07T02:43:36;12.50;;;6.85;;
74620;SDS011;64861;47.546;19.254;2022-12-07T02:46:14;14.10;;;6.50;;
74620;SDS011;64861;47.546;19.254;2022-12-07T02:48:45;13.50;;;6.90;;
74620;SDS011;64861;47.546;19.254;2022-12-07T02:51:11;14.57;;;7.38;;
74620;SDS011;64861;47.546;19.254;2022-12-07T02:53:40;14.57;;;7.85;;
74620;SDS011;64861;47.546;19.254;2022-12-07T03:04:16;13.52;;;7.05;;
74620;SDS011;64861;47.546;19.254;2022-12-07T03:07:02;12.73;;;7.22;;
74620;SDS011;64861;47.546;19.254;2022-12-07T03:09:38;10.85;;;6.05;;
74620;SDS011;64861;47.546;19.254;2022-12-07T03:12:14;12.10;;;6.88;;
74620;SDS011;64861;47.546;19.254;2022-12-07T03:14:48;13.35;;;7.10;;
74620;SDS011;64861;47.546;19.254;2022-12-07T03:17:27;14.73;;;6.68;;
74620;SDS011;64861;47.546;19.254;2022-12-07T03:19:58;10.50;;;6.40;;
74620;SDS011;64861;47.546;19.254;2022-12-07T03:22:25;13.35;;;6.65;;
74620;SDS011;64861;47.546;19.254;2022-12-07T03:25:00;10.68;;;6.20;;
74620;SDS011;64861;47.546;19.254;2022-12-07T03:27:49;11.85;;;6.43;;
74620;SDS011;64861;47.546;19.254;2022-12-07T03:30:34;11.75;;;6.80;;
74620;SDS011;64861;47.546;19.254;2022-12-07T03:33:08;13.05;;;6.90;;
74620;SDS011;64861;47.546;19.254;2022-12-07T03:35:47;13.57;;;6.47;;
74620;SDS011;64861;47.546;19.254;2022-12-07T03:43:33;11.40;;;6.15;;
74620;SDS011;64861;47.546;19.254;2022-12-07T03:51:43;12.65;;;6.50;;
74620;SDS011;64861;47.546;19.254;2022-12-07T03:57:18;11.20;;;6.30;;
74620;SDS011;64861;47.546;19.254;2022-12-07T03:59:46;10.70;;;6.57;;
74620;SDS011;64861;47.546;19.254;2022-12-07T04:02:13;10.68;;;6.50;;
74620;SDS011;64861;47.546;19.254;2022-12-07T04:04:39;11.60;;;6.78;;
74620;SDS011;64861;47.546;19.254;2022-12-07T04:07:05;12.18;;;6.32;;
74620;SDS011;64861;47.546;19.254;2022-12-07T04:09:30;8.98;;;5.03;;
74620;SDS011;64861;47.546;19.254;2022-12-07T04:11:56;10.55;;;6.18;;
74620;SDS011;64861;47.546;19.254;2022-12-07T04:14:21;11.77;;;6.35;;
74620;SDS011;64861;47.546;19.254;2022-12-07T04:16:47;10.65;;;6.53;;
74620;SDS011;64861;47.546;19.254;2022-12-07T04:19:14;13.27;;;6.85;;
74620;SDS011;64861;47.546;19.254;2022-12-07T04:21:41;12.13;;;6.68;;
74620;SDS011;64861;47.546;19.254;2022-12-07T04:24:06;11.27;;;6.38;;
74620;SDS011;64861;47.546;19.254;2022-12-07T04:26:32;10.85;;;6.53;;
74620;SDS011;64861;47.546;19.254;2022-12-07T04:28:57;9.63;;;5.97;;
74620;SDS011;64861;47.546;19.254;2022-12-07T04:31:23;10.18;;;6.32;;
74620;SDS011;64861;47.546;19.254;2022-12-07T04:33:48;11.88;;;5.93;;
74620;SDS011;64861;47.546;19.254;2022-12-07T04:36:14;9.65;;;5.82;;
74620;SDS011;64861;47.546;19.254;2022-12-07T04:38:39;9.82;;;5.85;;
74620;SDS011;64861;47.546;19.254;2022-12-07T04:41:08;9.77;;;6.00;;
74620;SDS011;64861;47.546;19.254;2022-12-07T04:43:34;9.98;;;5.93;;
74620;SDS011;64861;47.546;19.254;2022-12-07T04:46:00;9.93;;;5.38;;
74620;SDS011;64861;47.546;19.254;2022-12-07T04:48:25;11.80;;;6.15;;
74620;SDS011;64861;47.546;19.254;2022-12-07T04:50:51;9.95;;;5.75;;
74620;SDS011;64861;47.546;19.254;2022-12-07T04:53:16;9.32;;;5.55;;
74620;SDS011;64861;47.546;19.254;2022-12-07T04:55:42;11.02;;;5.53;;
74620;SDS011;64861;47.546;19.254;2022-12-07T04:58:08;8.45;;;5.40;;
74620;SDS011;64861;47.546;19.254;2022-12-07T05:00:33;10.80;;;5.60;;
74620;SDS011;64861;47.546;19.254;2022-12-07T05:02:59;8.63;;;4.95;;
74620;SDS011;64861;47.546;19.254;2022-12-07T05:05:24;8.55;;;5.05;;
74620;SDS011;64861;47.546;19.254;2022-12-07T05:07:50;8.68;;;5.35;;
74620;SDS011;64861;47.546;19.254;2022-12-07T05:10:15;8.32;;;5.18;;
74620;SDS011;64861;47.546;19.254;2022-12-07T05:12:41;9.30;;;4.97;;
74620;SDS011;64861;47.546;19.254;2022-12-07T05:15:07;10.93;;;5.60;;
74620;SDS011;64861;47.546;19.254;2022-12-07T05:17:32;9.15;;;5.05;;
74620;SDS011;64861;47.546;19.254;2022-12-07T05:19:58;9.00;;;5.10;;
74620;SDS011;64861;47.546;19.254;2022-12-07T05:22:23;8.90;;;5.05;;
74620;SDS011;64861;47.546;19.254;2022-12-07T05:24:53;8.98;;;4.97;;
74620;SDS011;64861;47.546;19.254;2022-12-07T05:27:19;8.18;;;4.90;;
74620;SDS011;64861;47.546;19.254;2022-12-07T05:29:44;7.25;;;4.50;;
74620;SDS011;64861;47.546;19.254;2022-12-07T05:32:09;8.00;;;4.43;;
74620;SDS011;64861;47.546;19.254;2022-12-07T05:34:35;8.45;;;4.57;;
74620;SDS011;64861;47.546;19.254;2022-12-07T05:37:00;7.15;;;4.25;;
74620;SDS011;64861;47.546;19.254;2022-12-07T05:39:26;6.95;;;4.03;;
74620;SDS011;64861;47.546;19.254;2022-12-07T05:41:51;8.23;;;4.57;;
74620;SDS011;64861;47.546;19.254;2022-12-07T05:44:35;7.53;;;4.25;;
74620;SDS011;64861;47.546;19.254;2022-12-07T05:47:00;7.93;;;4.32;;
74620;SDS011;64861;47.546;19.254;2022-12-07T05:49:26;6.35;;;3.90;;
74620;SDS011;64861;47.546;19.254;2022-12-07T05:51:51;8.38;;;4.25;;
74620;SDS011;64861;47.546;19.254;2022-12-07T05:54:17;7.97;;;3.88;;
74620;SDS011;64861;47.546;19.254;2022-12-07T05:56:42;7.45;;;4.32;;
74620;SDS011;64861;47.546;19.254;2022-12-07T05:59:08;7.85;;;3.80;;
74620;SDS011;64861;47.546;19.254;2022-12-07T06:01:51;10.45;;;4.05;;
74620;SDS011;64861;47.546;19.254;2022-12-07T06:04:24;9.48;;;4.25;;
74620;SDS011;64861;47.546;19.254;2022-12-07T06:06:51;8.70;;;4.50;;
74620;SDS011;64861;47.546;19.254;2022-12-07T06:09:17;8.00;;;4.25;;
74620;SDS011;64861;47.546;19.254;2022-12-07T06:11:46;6.75;;;3.72;;
74620;SDS011;64861;47.546;19.254;2022-12-07T06:14:30;8.35;;;4.03;;
74620;SDS011;64861;47.546;19.254;2022-12-07T06:16:55;7.28;;;4.30;;
74620;SDS011;64861;47.546;19.254;2022-12-07T06:19:21;9.77;;;4.45;;
74620;SDS011;64861;47.546;19.254;2022-12-07T06:21:46;8.25;;;4.50;;
74620;SDS011;64861;47.546;19.254;2022-12-07T06:24:12;7.18;;;3.80;;
74620;SDS011;64861;47.546;19.254;2022-12-07T06:26:39;9.20;;;4.60;;
74620;SDS011;64861;47.546;19.254;2022-12-07T06:29:05;8.80;;;4.80;;
74620;SDS011;64861;47.546;19.254;2022-12-07T06:31:31;7.82;;;4.60;;
74620;SDS011;64861;47.546;19.254;2022-12-07T06:34:00;7.45;;;3.92;;
74620;SDS011;64861;47.546;19.254;2022-12-07T06:36:27;7.82;;;4.53;;
74620;SDS011;64861;47.546;19.254;2022-12-07T06:38:53;9.15;;;4.78;;
74620;SDS011;64861;47.546;19.254;2022-12-07T06:41:20;8.60;;;4.97;;
74620;SDS011;64861;47.546;19.254;2022-12-07T06:43:46;8.15;;;4.65;;
74620;SDS011;64861;47.546;19.254;2022-12-07T06:46:11;7.65;;;4.72;;
74620;SDS011;64861;47.546;19.254;2022-12-07T06:48:37;8.63;;;4.57;;
74620;SDS011;64861;47.546;19.254;2022-12-07T06:51:03;8.15;;;4.47;;
74620;SDS011;64861;47.546;19.254;2022-12-07T06:53:28;8.80;;;4.75;;
74620;SDS011;64861;47.546;19.254;2022-12-07T06:55:54;9.00;;;5.00;;
74620;SDS011;64861;47.546;19.254;2022-12-07T06:58:19;8.13;;;4.20;;
74620;SDS011;64861;47.546;19.254;2022-12-07T07:00:45;7.95;;;4.32;;
74620;SDS011;64861;47.546;19.254;2022-12-07T07:03:10;10.52;;;4.70;;
74620;SDS011;64861;47.546;19.254;2022-12-07T07:05:36;11.02;;;4.65;;
74620;SDS011;64861;47.546;19.254;2022-12-07T07:08:01;7.72;;;4.40;;
74620;SDS011;64861;47.546;19.254;2022-12-07T07:10:27;8.35;;;4.65;;
74620;SDS011;64861;47.546;19.254;2022-12-07T07:12:53;8.63;;;4.88;;
74620;SDS011;64861;47.546;19.254;2022-12-07T07:15:18;9.02;;;4.85;;
74620;SDS011;64861;47.546;19.254;2022-12-07T07:17:44;11.65;;;4.90;;
74620;SDS011;64861;47.546;19.254;2022-12-07T07:20:09;11.95;;;4.60;;
74620;SDS011;64861;47.546;19.254;2022-12-07T07:22:35;12.15;;;4.90;;
74620;SDS011;64861;47.546;19.254;2022-12-07T07:25:00;17.45;;;5.60;;
74620;SDS011;64861;47.546;19.254;2022-12-07T07:27:26;17.85;;;5.50;;
74620;SDS011;64861;47.546;19.254;2022-12-07T07:29:51;13.70;;;5.60;;
74620;SDS011;64861;47.546;19.254;2022-12-07T07:32:17;25.02;;;5.22;;
74620;SDS011;64861;47.546;19.254;2022-12-07T07:34:42;14.07;;;5.22;;
74620;SDS011;64861;47.546;19.254;2022-12-07T07:37:08;15.63;;;5.75;;
74620;SDS011;64861;47.546;19.254;2022-12-07T07:39:33;13.20;;;5.20;;
74620;SDS011;64861;47.546;19.254;2022-12-07T07:41:58;11.60;;;5.07;;
74620;SDS011;64861;47.546;19.254;2022-12-07T07:44:24;10.40;;;5.25;;
74620;SDS011;64861;47.546;19.254;2022-12-07T07:46:49;15.60;;;5.78;;
74620;SDS011;64861;47.546;19.254;2022-12-07T07:49:15;13.23;;;5.80;;
74620;SDS011;64861;47.546;19.254;2022-12-07T07:51:40;16.77;;;6.18;;
74620;SDS011;64861;47.546;19.254;2022-12-07T07:54:05;16.25;;;5.40;;
74620;SDS011;64861;47.546;19.254;2022-12-07T07:56:31;27.00;;;13.15;;
74620;SDS011;64861;47.546;19.254;2022-12-07T07:58:56;222.82;;;157.05;;
74620;SDS011;64861;47.546;19.254;2022-12-07T08:01:22;151.95;;;96.63;;
74620;SDS011;64861;47.546;19.254;2022-12-07T08:03:47;124.85;;;73.20;;
74620;SDS011;64861;47.546;19.254;2022-12-07T08:06:13;109.40;;;65.70;;
74620;SDS011;64861;47.546;19.254;2022-12-07T08:08:39;105.85;;;61.63;;
74620;SDS011;64861;47.546;19.254;2022-12-07T08:11:05;92.47;;;56.03;;
74620;SDS011;64861;47.546;19.254;2022-12-07T08:13:30;88.55;;;51.58;;
74620;SDS011;64861;47.546;19.254;2022-12-07T08:15:56;78.90;;;46.50;;
74620;SDS011;64861;47.546;19.254;2022-12-07T08:18:21;70.93;;;41.22;;
74620;SDS011;64861;47.546;19.254;2022-12-07T08:20:47;57.42;;;36.42;;
74620;SDS011;64861;47.546;19.254;2022-12-07T08:23:12;59.50;;;35.08;;
74620;SDS011;64861;47.546;19.254;2022-12-07T08:25:38;48.67;;;31.67;;
74620;SDS011;64861;47.546;19.254;2022-12-07T08:28:04;47.38;;;29.45;;
74620;SDS011;64861;47.546;19.254;2022-12-07T08:30:29;44.90;;;27.80;;
74620;SDS011;64861;47.546;19.254;2022-12-07T08:32:55;42.28;;;26.23;;
74620;SDS011;64861;47.546;19.254;2022-12-07T08:35:21;38.88;;;24.88;;
74620;SDS011;64861;47.546;19.254;2022-12-07T08:37:46;36.67;;;24.45;;
74620;SDS011;64861;47.546;19.254;2022-12-07T08:40:12;36.92;;;21.80;;
74620;SDS011;64861;47.546;19.254;2022-12-07T08:42:43;39.05;;;22.92;;
74620;SDS011;64861;47.546;19.254;2022-12-07T08:45:16;40.08;;;20.77;;
74620;SDS011;64861;47.546;19.254;2022-12-07T08:47:44;405.27;;;195.38;;
74620;SDS011;64861;47.546;19.254;2022-12-07T08:50:15;320.40;;;166.75;;
74620;SDS011;64861;47.546;19.254;2022-12-07T08:52:41;369.55;;;194.48;;
74620;SDS011;64861;47.546;19.254;2022-12-07T08:55:09;316.95;;;167.50;;
74620;SDS011;64861;47.546;19.254;2022-12-07T08:57:36;264.63;;;138.70;;
74620;SDS011;64861;47.546;19.254;2022-12-07T09:00:03;227.55;;;116.38;;
74620;SDS011;64861;47.546;19.254;2022-12-07T09:02:30;215.27;;;110.22;;
74620;SDS011;64861;47.546;19.254;2022-12-07T09:04:56;187.30;;;97.07;;
74620;SDS011;64861;47.546;19.254;2022-12-07T09:07:21;166.90;;;81.65;;
74620;SDS011;64861;47.546;19.254;2022-12-07T09:09:47;152.85;;;75.50;;
74620;SDS011;64861;47.546;19.254;2022-12-07T09:12:12;151.68;;;67.97;;
74620;SDS011;64861;47.546;19.254;2022-12-07T09:14:37;157.70;;;67.15;;
74620;SDS011;64861;47.546;19.254;2022-12-07T09:17:07;200.57;;;67.75;;
74620;SDS011;64861;47.546;19.254;2022-12-07T09:19:33;144.48;;;54.38;;
74620;SDS011;64861;47.546;19.254;2022-12-07T09:21:59;174.48;;;52.90;;
74620;SDS011;64861;47.546;19.254;2022-12-07T09:24:24;130.13;;;47.33;;
74620;SDS011;64861;47.546;19.254;2022-12-07T09:26:50;228.95;;;55.20;;
74620;SDS011;64861;47.546;19.254;2022-12-07T09:29:15;181.85;;;49.20;;
74620;SDS011;64861;47.546;19.254;2022-12-07T09:31:40;208.75;;;47.95;;
74620;SDS011;64861;47.546;19.254;2022-12-07T09:34:06;234.40;;;48.03;;
74620;SDS011;64861;47.546;19.254;2022-12-07T09:36:32;198.02;;;45.13;;
74620;SDS011;64861;47.546;19.254;2022-12-07T09:38:58;200.18;;;44.80;;
74620;SDS011;64861;47.546;19.254;2022-12-07T09:41:24;187.43;;;42.80;;
74620;SDS011;64861;47.546;19.254;2022-12-07T09:43:52;223.35;;;43.97;;
74620;SDS011;64861;47.546;19.254;2022-12-07T09:46:22;388.10;;;46.75;;
74620;SDS011;64861;47.546;19.254;2022-12-07T09:48:49;249.18;;;43.58;;
74620;SDS011;64861;47.546;19.254;2022-12-07T09:51:16;238.75;;;44.55;;
74620;SDS011;64861;47.546;19.254;2022-12-07T09:53:45;271.20;;;42.33;;
74620;SDS011;64861;47.546;19.254;2022-12-07T09:56:12;306.65;;;44.72;;
74620;SDS011;64861;47.546;19.254;2022-12-07T09:58:39;268.27;;;42.42;;
74620;SDS011;64861;47.546;19.254;2022-12-07T10:03:37;299.45;;;42.08;;
74620;SDS011;64861;47.546;19.254;2022-12-07T10:06:04;305.48;;;45.53;;
74620;SDS011;64861;47.546;19.254;2022-12-07T10:08:31;301.45;;;41.22;;
74620;SDS011;64861;47.546;19.254;2022-12-07T10:10:57;283.52;;;42.95;;
74620;SDS011;64861;47.546;19.254;2022-12-07T10:16:05;301.63;;;41.28;;
74620;SDS011;64861;47.546;19.254;2022-12-07T10:18:53;261.98;;;38.85;;
74620;SDS011;64861;47.546;19.254;2022-12-07T10:21:20;331.15;;;41.17;;
74620;SDS011;64861;47.546;19.254;2022-12-07T10:31:49;214.38;;;34.78;;
74620;SDS011;64861;47.546;19.254;2022-12-07T10:39:47;293.55;;;37.55;;
74620;SDS011;64861;47.546;19.254;2022-12-07T10:42:19;272.42;;;35.45;;
74620;SDS011;64861;47.546;19.254;2022-12-07T10:44:50;243.65;;;34.13;;
74620;SDS011;64861;47.546;19.254;2022-12-07T10:53:47;234.35;;;32.42;;
74620;SDS011;64861;47.546;19.254;2022-12-07T10:56:32;191.35;;;31.38;;
74620;SDS011;64861;47.546;19.254;2022-12-07T11:01:57;176.90;;;29.67;;
74620;SDS011;64861;47.546;19.254;2022-12-07T11:04:35;221.15;;;29.92;;
74620;SDS011;64861;47.546;19.254;2022-12-07T11:07:37;222.27;;;32.47;;
74620;SDS011;64861;47.546;19.254;2022-12-07T11:18:48;263.17;;;32.00;;
74620;SDS011;64861;47.546;19.254;2022-12-07T11:38:17;185.75;;;24.50;;
74620;SDS011;64861;47.546;19.254;2022-12-07T11:40:47;193.35;;;26.17;;
74620;SDS011;64861;47.546;19.254;2022-12-07T11:43:23;188.38;;;25.15;;
74620;SDS011;64861;47.546;19.254;2022-12-07T11:46:06;166.50;;;25.20;;
74620;SDS011;64861;47.546;19.254;2022-12-07T11:48:41;156.80;;;22.95;;
74620;SDS011;64861;47.546;19.254;2022-12-07T11:51:12;160.95;;;22.10;;
74620;SDS011;64861;47.546;19.254;2022-12-07T11:53:45;193.10;;;25.40;;
74620;SDS011;64861;47.546;19.254;2022-12-07T12:01:22;189.38;;;25.58;;
74620;SDS011;64861;47.546;19.254;2022-12-07T12:06:36;184.07;;;23.67;;
74620;SDS011;64861;47.546;19.254;2022-12-07T12:22:12;139.77;;;20.95;;
74620;SDS011;64861;47.546;19.254;2022-12-07T12:24:42;112.45;;;20.00;;
74620;SDS011;64861;47.546;19.254;2022-12-07T12:27:15;124.35;;;20.38;;
74620;SDS011;64861;47.546;19.254;2022-12-07T12:29:51;106.75;;;19.48;;
74620;SDS011;64861;47.546;19.254;2022-12-07T12:32:24;142.25;;;20.85;;
74620;SDS011;64861;47.546;19.254;2022-12-07T12:37:56;150.75;;;19.42;;
74620;SDS011;64861;47.546;19.254;2022-12-07T12:40:58;157.70;;;21.05;;
74620;SDS011;64861;47.546;19.254;2022-12-07T12:43:44;137.95;;;19.83;;
74620;SDS011;64861;47.546;19.254;2022-12-07T12:51:45;503.90;;;35.05;;
74620;SDS011;64861;47.546;19.254;2022-12-07T12:54:14;566.08;;;36.17;;
74620;SDS011;64861;47.546;19.254;2022-12-07T13:01:46;679.95;;;45.53;;
74620;SDS011;64861;47.546;19.254;2022-12-07T13:04:17;893.50;;;55.22;;
74620;SDS011;64861;47.546;19.254;2022-12-07T13:06:49;691.83;;;45.35;;
74620;SDS011;64861;47.546;19.254;2022-12-07T13:09:28;498.52;;;36.38;;
74620;SDS011;64861;47.546;19.254;2022-12-07T13:11:58;489.65;;;38.75;;
74620;SDS011;64861;47.546;19.254;2022-12-07T13:25:03;408.65;;;31.92;;
74620;SDS011;64861;47.546;19.254;2022-12-07T13:27:31;413.65;;;31.48;;
74620;SDS011;64861;47.546;19.254;2022-12-07T13:29:57;359.38;;;26.67;;
74620;SDS011;64861;47.546;19.254;2022-12-07T13:32:24;298.67;;;23.58;;
74620;SDS011;64861;47.546;19.254;2022-12-07T13:34:51;639.80;;;41.30;;
74620;SDS011;64861;47.546;19.254;2022-12-07T13:37:29;654.03;;;40.60;;
74620;SDS011;64861;47.546;19.254;2022-12-07T13:39:58;499.92;;;33.17;;
74620;SDS011;64861;47.546;19.254;2022-12-07T13:44:59;1290.68;;;80.97;;
74620;SDS011;64861;47.546;19.254;2022-12-07T13:47:49;241.65;;;17.30;;
74620;SDS011;64861;47.546;19.254;2022-12-07T13:50:28;409.92;;;27.10;;
74620;SDS011;64861;47.546;19.254;2022-12-07T13:52:57;1999.90;;;284.63;;
74620;SDS011;64861;47.546;19.254;2022-12-07T13:55:24;1999.90;;;321.90;;
74620;SDS011;64861;47.546;19.254;2022-12-07T13:57:52;1783.30;;;143.80;;
74620;SDS011;64861;47.546;19.254;2022-12-07T14:00:19;1512.63;;;134.98;;
74620;SDS011;64861;47.546;19.254;2022-12-07T14:03:00;1477.38;;;125.35;;
74620;SDS011;64861;47.546;19.254;2022-12-07T14:05:29;1517.82;;;131.07;;
74620;SDS011;64861;47.546;19.254;2022-12-07T14:07:59;1146.47;;;101.50;;
74620;SDS011;64861;47.546;19.254;2022-12-07T14:13:00;962.40;;;86.47;;
74620;SDS011;64861;47.546;19.254;2022-12-07T14:15:32;841.22;;;72.82;;
74620;SDS011;64861;47.546;19.254;2022-12-07T14:18:00;852.08;;;76.03;;
74620;SDS011;64861;47.546;19.254;2022-12-07T14:20:36;789.50;;;69.93;;
74620;SDS011;64861;47.546;19.254;2022-12-07T14:23:04;830.72;;;71.47;;
74620;SDS011;64861;47.546;19.254;2022-12-07T14:25:50;694.40;;;63.47;;
74620;SDS011;64861;47.546;19.254;2022-12-07T14:30:59;618.88;;;50.83;;
74620;SDS011;64861;47.546;19.254;2022-12-07T14:33:25;694.63;;;54.10;;
74620;SDS011;64861;47.546;19.254;2022-12-07T14:35:52;582.50;;;48.88;;
74620;SDS011;64861;47.546;19.254;2022-12-07T14:38:21;671.20;;;52.70;;
74620;SDS011;64861;47.546;19.254;2022-12-07T14:40:47;584.33;;;48.53;;
74620;SDS011;64861;47.546;19.254;2022-12-07T14:43:14;548.75;;;46.20;;
74620;SDS011;64861;47.546;19.254;2022-12-07T14:45:41;511.80;;;42.75;;
74620;SDS011;64861;47.546;19.254;2022-12-07T14:48:13;549.25;;;40.85;;
74620;SDS011;64861;47.546;19.254;2022-12-07T14:50:49;485.58;;;41.20;;
74620;SDS011;64861;47.546;19.254;2022-12-07T14:53:18;361.95;;;30.00;;
74620;SDS011;64861;47.546;19.254;2022-12-07T14:55:53;414.67;;;36.15;;
74620;SDS011;64861;47.546;19.254;2022-12-07T14:58:18;411.17;;;35.92;;
74620;SDS011;64861;47.546;19.254;2022-12-07T15:00:45;378.75;;;33.80;;
74620;SDS011;64861;47.546;19.254;2022-12-07T15:03:10;349.50;;;31.08;;
74620;SDS011;64861;47.546;19.254;2022-12-07T15:05:38;415.02;;;34.15;;
74620;SDS011;64861;47.546;19.254;2022-12-07T15:08:03;336.83;;;30.50;;
74620;SDS011;64861;47.546;19.254;2022-12-07T15:10:30;403.58;;;32.25;;
74620;SDS011;64861;47.546;19.254;2022-12-07T15:12:58;367.15;;;30.70;;
74620;SDS011;64861;47.546;19.254;2022-12-07T15:15:42;384.98;;;30.52;;
74620;SDS011;64861;47.546;19.254;2022-12-07T15:18:08;331.15;;;27.85;;
74620;SDS011;64861;47.546;19.254;2022-12-07T15:20:33;418.05;;;33.50;;
74620;SDS011;64861;47.546;19.254;2022-12-07T15:22:59;318.38;;;30.27;;
74620;SDS011;64861;47.546;19.254;2022-12-07T15:25:24;281.75;;;27.10;;
74620;SDS011;64861;47.546;19.254;2022-12-07T15:27:50;232.82;;;21.05;;
74620;SDS011;64861;47.546;19.254;2022-12-07T15:30:15;275.05;;;25.75;;
74620;SDS011;64861;47.546;19.254;2022-12-07T15:32:41;275.52;;;24.58;;
74620;SDS011;64861;47.546;19.254;2022-12-07T15:35:06;260.52;;;23.02;;
74620;SDS011;64861;47.546;19.254;2022-12-07T15:37:32;333.13;;;27.05;;
74620;SDS011;64861;47.546;19.254;2022-12-07T15:39:58;393.13;;;31.25;;
74620;SDS011;64861;47.546;19.254;2022-12-07T15:42:23;404.40;;;31.90;;
74620;SDS011;64861;47.546;19.254;2022-12-07T15:44:48;386.95;;;29.80;;
74620;SDS011;64861;47.546;19.254;2022-12-07T15:47:33;375.25;;;30.05;;
74620;SDS011;64861;47.546;19.254;2022-12-07T15:50:04;381.33;;;31.80;;
74620;SDS011;64861;47.546;19.254;2022-12-07T15:52:31;327.63;;;28.00;;
74620;SDS011;64861;47.546;19.254;2022-12-07T15:54:57;268.50;;;26.13;;
74620;SDS011;64861;47.546;19.254;2022-12-07T15:57:25;312.20;;;27.80;;
74620;SDS011;64861;47.546;19.254;2022-12-07T15:59:51;252.43;;;24.80;;
74620;SDS011;64861;47.546;19.254;2022-12-07T16:02:17;281.75;;;23.02;;
74620;SDS011;64861;47.546;19.254;2022-12-07T16:04:42;243.15;;;22.35;;
74620;SDS011;64861;47.546;19.254;2022-12-07T16:07:07;229.35;;;21.65;;
74620;SDS011;64861;47.546;19.254;2022-12-07T16:09:33;347.08;;;26.70;;
74620;SDS011;64861;47.546;19.254;2022-12-07T16:11:59;436.42;;;33.97;;
74620;SDS011;64861;47.546;19.254;2022-12-07T16:14:24;432.60;;;30.73;;
74620;SDS011;64861;47.546;19.254;2022-12-07T16:16:50;379.27;;;27.90;;
74620;SDS011;64861;47.546;19.254;2022-12-07T16:19:15;345.55;;;26.25;;
74620;SDS011;64861;47.546;19.254;2022-12-07T16:21:41;292.27;;;24.98;;
74620;SDS011;64861;47.546;19.254;2022-12-07T16:24:07;314.13;;;24.10;;
74620;SDS011;64861;47.546;19.254;2022-12-07T16:26:33;401.75;;;27.95;;
74620;SDS011;64861;47.546;19.254;2022-12-07T16:28:58;413.73;;;28.38;;
74620;SDS011;64861;47.546;19.254;2022-12-07T16:31:25;390.65;;;27.65;;
74620;SDS011;64861;47.546;19.254;2022-12-07T16:33:55;362.02;;;25.85;;
74620;SDS011;64861;47.546;19.254;2022-12-07T16:36:22;332.25;;;24.23;;